createdAt,value
2018-03-26T00:00:51.725Z,28.73
2018-03-26T00:03:19.238Z,27.20
2018-03-26T00:05:47.469Z,27.33
2018-03-26T00:08:14.928Z,28.33
2018-03-26T00:10:42.992Z,27.17
2018-03-26T00:13:10.480Z,27.93
2018-03-26T00:15:38.701Z,27.57
2018-03-26T00:18:06.186Z,27.93
2018-03-26T00:20:34.432Z,27.27
2018-03-26T00:23:01.917Z,26.70
2018-03-26T00:25:29.361Z,26.10
2018-03-26T00:27:56.834Z,26.77
2018-03-26T00:30:24.300Z,27.57
2018-03-26T00:32:51.782Z,27.97
2018-03-26T00:35:20.024Z,27.10
2018-03-26T00:37:47.512Z,27.50
2018-03-26T00:40:15.754Z,27.53
2018-03-26T00:42:43.201Z,27.70
2018-03-26T00:45:10.660Z,28.43
2018-03-26T00:47:38.121Z,28.27
2018-03-26T00:50:05.596Z,27.10
2018-03-26T00:52:33.073Z,26.80
2018-03-26T00:55:01.288Z,27.93
2018-03-26T00:57:28.757Z,28.33
2018-03-26T00:59:56.233Z,26.60
2018-03-26T01:02:25.598Z,27.10
2018-03-26T01:04:53.077Z,27.57
2018-03-26T01:07:20.566Z,26.33
2018-03-26T01:09:48.032Z,26.10
2018-03-26T01:12:16.281Z,27.37
2018-03-26T01:14:43.748Z,27.77
2018-03-26T01:17:11.213Z,27.13
2018-03-26T01:19:39.434Z,27.73
2018-03-26T01:22:06.897Z,29.13
2018-03-26T01:24:35.124Z,27.27
2018-03-26T01:27:03.374Z,27.00
2018-03-26T01:29:30.837Z,27.27
2018-03-26T01:31:58.293Z,27.27
2018-03-26T01:34:25.766Z,27.30
2018-03-26T01:36:53.237Z,27.40
2018-03-26T01:39:21.478Z,25.93
2018-03-26T01:41:48.932Z,27.37
2018-03-26T01:44:16.389Z,26.93
2018-03-26T01:46:43.882Z,26.90
2018-03-26T01:49:12.116Z,28.17
2018-03-26T01:51:39.569Z,27.90
2018-03-26T01:54:07.045Z,29.03
2018-03-26T01:56:34.512Z,29.43
2018-03-26T01:59:02.731Z,27.70
2018-03-26T02:01:30.205Z,28.23
2018-03-26T02:03:57.674Z,28.37
2018-03-26T02:06:25.129Z,28.57
2018-03-26T02:08:52.581Z,29.23
2018-03-26T02:11:20.070Z,31.63
2018-03-26T02:13:48.282Z,29.80
2018-03-26T02:16:15.773Z,29.43
2018-03-26T02:18:43.249Z,29.00
2018-03-26T02:21:10.857Z,29.90
2018-03-26T02:23:38.305Z,29.77
2018-03-26T02:26:05.777Z,30.27
2018-03-26T02:28:33.230Z,29.50
2018-03-26T02:31:00.685Z,29.50
2018-03-26T02:33:28.145Z,29.97
2018-03-26T02:35:55.645Z,29.77
2018-03-26T02:38:23.102Z,30.43
2018-03-26T02:40:50.550Z,31.70
2018-03-26T02:43:18.009Z,31.87
2018-03-26T02:45:45.457Z,31.43
2018-03-26T02:48:12.964Z,33.37
2018-03-26T02:50:40.480Z,33.33
2018-03-26T02:53:07.929Z,34.77
2018-03-26T02:55:35.413Z,33.83
2018-03-26T02:58:03.621Z,34.07
2018-03-26T03:00:31.100Z,33.00
2018-03-26T03:02:58.575Z,34.83
2018-03-26T03:05:26.811Z,34.97
2018-03-26T03:07:54.291Z,34.63
2018-03-26T03:10:21.784Z,35.80
2018-03-26T03:12:49.255Z,37.13
2018-03-26T03:15:17.476Z,36.00
2018-03-26T03:17:44.924Z,35.20
2018-03-26T03:20:12.391Z,37.47
2018-03-26T03:22:39.848Z,38.17
2018-03-26T03:25:07.315Z,39.57
2018-03-26T03:27:34.793Z,40.87
2018-03-26T03:30:02.249Z,41.47
2018-03-26T03:32:29.709Z,42.80
2018-03-26T03:34:57.195Z,45.20
2018-03-26T03:37:24.648Z,44.93
2018-03-26T03:39:52.138Z,47.03
2018-03-26T03:42:19.591Z,47.70
2018-03-26T03:44:47.065Z,45.20
2018-03-26T03:47:16.069Z,48.93
2018-03-26T03:49:44.273Z,47.80
2018-03-26T03:52:12.533Z,49.70
2018-03-26T03:54:40.019Z,48.60
2018-03-26T03:57:08.253Z,49.07
2018-03-26T03:59:35.710Z,49.07
2018-03-26T04:02:03.155Z,51.17
2018-03-26T04:04:30.637Z,51.17
2018-03-26T04:06:58.084Z,51.73
2018-03-26T04:09:25.540Z,52.97
2018-03-26T04:11:52.996Z,53.80
2018-03-26T04:14:20.473Z,52.47
2018-03-26T04:16:48.687Z,52.13
2018-03-26T04:19:16.177Z,53.80
2018-03-26T04:21:43.626Z,52.30
2018-03-26T04:24:11.082Z,52.90
2018-03-26T04:26:38.536Z,54.17
2018-03-26T04:29:06.784Z,54.13
2018-03-26T04:31:34.248Z,55.13
2018-03-26T04:34:01.694Z,52.93
2018-03-26T04:36:29.158Z,54.87
2018-03-26T04:38:56.623Z,53.87
2018-03-26T04:41:24.072Z,53.30
2018-03-26T04:43:51.556Z,54.03
2018-03-26T04:46:19.022Z,52.60
2018-03-26T04:48:46.513Z,50.27
2018-03-26T04:51:14.730Z,52.97
2018-03-26T04:53:42.219Z,53.20
2018-03-26T04:56:09.677Z,53.77
2018-03-26T04:58:38.937Z,54.60
2018-03-26T05:01:06.385Z,52.73
2018-03-26T05:03:36.763Z,51.47
2018-03-26T05:06:04.241Z,53.10
2018-03-26T05:08:32.453Z,59.13
2018-03-26T05:10:59.916Z,53.23
2018-03-26T05:13:27.401Z,50.87
2018-03-26T05:15:54.850Z,50.20
2018-03-26T05:18:22.294Z,48.20
2018-03-26T05:20:49.770Z,49.47
2018-03-26T05:23:17.242Z,47.97
2018-03-26T05:25:45.492Z,48.47
2018-03-26T05:28:12.960Z,47.00
2018-03-26T05:30:41.189Z,46.77
2018-03-26T05:33:08.633Z,43.17
2018-03-26T05:35:36.110Z,47.57
2018-03-26T05:38:03.562Z,43.13
2018-03-26T05:40:31.058Z,41.23
2018-03-26T05:42:58.782Z,41.90
2018-03-26T05:45:26.249Z,40.20
2018-03-26T05:47:53.791Z,41.03
2018-03-26T05:50:21.239Z,39.07
2018-03-26T05:52:48.725Z,47.93
2018-03-26T05:55:16.178Z,40.43
2018-03-26T05:57:43.616Z,40.13
2018-03-26T06:00:11.688Z,38.67
2018-03-26T06:02:39.143Z,38.97
2018-03-26T06:05:06.641Z,43.53
2018-03-26T06:07:34.109Z,39.87
2018-03-26T06:10:01.573Z,38.20
2018-03-26T06:12:29.020Z,38.23
2018-03-26T06:14:56.489Z,39.07
2018-03-26T06:17:23.973Z,41.20
2018-03-26T06:19:51.470Z,40.43
2018-03-26T06:22:18.933Z,50.37
2018-03-26T06:24:46.381Z,39.33
2018-03-26T06:27:13.841Z,37.80
2018-03-26T06:29:41.292Z,37.53
2018-03-26T06:32:08.754Z,38.67
2018-03-26T06:34:36.269Z,38.27
2018-03-26T06:40:05.622Z,40.07
2018-03-26T06:42:33.064Z,36.90
2018-03-26T06:45:00.523Z,38.90
2018-03-26T06:47:27.996Z,37.37
2018-03-26T06:49:55.467Z,37.43
2018-03-26T06:52:22.912Z,40.40
2018-03-26T06:54:50.365Z,39.23
2018-03-26T06:57:17.853Z,38.17
2018-03-26T06:59:45.316Z,36.80
2018-03-26T07:02:12.768Z,38.33
2018-03-26T07:04:40.252Z,39.57
2018-03-26T07:07:08.485Z,37.60
2018-03-26T07:09:35.998Z,39.53
2018-03-26T07:12:03.436Z,38.93
2018-03-26T07:14:31.676Z,38.53
2018-03-26T07:16:59.153Z,40.13
2018-03-26T07:19:27.381Z,39.57
2018-03-26T07:21:54.841Z,40.43
2018-03-26T07:24:22.341Z,39.17
2018-03-26T07:26:49.823Z,40.43
2018-03-26T07:29:17.309Z,38.70
2018-03-26T07:31:44.762Z,40.93
2018-03-26T07:34:12.208Z,39.13
2018-03-26T07:36:39.673Z,40.27
2018-03-26T07:39:07.145Z,39.20
2018-03-26T07:41:34.678Z,50.57
2018-03-26T07:44:02.144Z,40.83
2018-03-26T07:46:29.589Z,40.53
2018-03-26T07:48:57.105Z,41.73
2018-03-26T07:51:24.609Z,40.07
2018-03-26T07:53:52.108Z,39.43
2018-03-26T07:56:19.608Z,38.67
2018-03-26T07:58:47.080Z,48.60
2018-03-26T08:01:14.556Z,41.20
2018-03-26T08:03:42.026Z,40.47
2018-03-26T08:06:09.485Z,41.77
2018-03-26T08:08:36.961Z,42.97
2018-03-26T08:11:04.442Z,43.20
2018-03-26T08:13:32.657Z,42.17
2018-03-26T08:16:00.122Z,40.77
2018-03-26T08:18:27.602Z,44.50
2018-03-26T08:20:56.446Z,42.27
2018-03-26T08:23:23.940Z,44.17
2018-03-26T08:25:51.413Z,42.60
2018-03-26T08:28:18.888Z,44.43
2018-03-26T08:30:47.129Z,46.07
2018-03-26T08:33:14.579Z,46.63
2018-03-26T08:35:42.033Z,51.03
2018-03-26T08:38:09.510Z,49.63
2018-03-26T08:40:36.985Z,49.87
2018-03-26T08:43:05.238Z,49.53
2018-03-26T08:45:32.747Z,49.87
2018-03-26T08:48:00.236Z,51.83
2018-03-26T08:50:27.716Z,54.93
2018-03-26T08:52:58.509Z,52.30
2018-03-26T08:55:26.023Z,52.73
2018-03-26T08:57:54.290Z,54.90
2018-03-26T09:00:22.610Z,54.37
2018-03-26T09:02:50.169Z,54.00
2018-03-26T09:05:21.080Z,52.57
2018-03-26T09:07:49.338Z,52.87
2018-03-26T09:10:17.576Z,52.27
2018-03-26T09:12:45.047Z,54.77
2018-03-26T09:15:12.541Z,51.80
2018-03-26T09:17:40.756Z,50.00
2018-03-26T09:20:08.215Z,47.80
2018-03-26T09:22:35.690Z,47.80
2018-03-26T09:25:03.177Z,46.50
2018-03-26T09:27:31.420Z,48.27
2018-03-26T09:29:59.111Z,47.57
2018-03-26T09:32:26.567Z,46.47
2018-03-26T09:34:54.022Z,48.27
2018-03-26T09:37:21.496Z,46.70
2018-03-26T09:39:49.747Z,46.57
2018-03-26T09:42:17.255Z,40.90
2018-03-26T09:44:44.727Z,47.10
2018-03-26T09:47:12.200Z,42.20
2018-03-26T09:49:40.452Z,38.27
2018-03-26T09:52:07.929Z,38.00
2018-03-26T09:54:35.443Z,37.57
2018-03-26T09:57:02.929Z,35.03
2018-03-26T09:59:30.414Z,32.40
2018-03-26T10:01:57.889Z,32.80
2018-03-26T10:04:25.420Z,36.13
2018-03-26T10:06:52.975Z,34.90
2018-03-26T10:09:20.435Z,34.20
2018-03-26T10:11:47.905Z,39.37
2018-03-26T10:14:15.375Z,31.60
2018-03-26T10:16:42.837Z,22.87
2018-03-26T10:19:11.073Z,20.03
2018-03-26T10:21:38.588Z,27.77
2018-03-26T10:24:06.080Z,27.00
2018-03-26T10:26:33.544Z,27.97
2018-03-26T10:29:00.994Z,24.33
2018-03-26T10:31:28.469Z,24.47
2018-03-26T10:33:55.952Z,25.93
2018-03-26T10:36:24.211Z,18.03
2018-03-26T10:38:51.689Z,19.53
2018-03-26T10:41:19.160Z,19.17
2018-03-26T10:43:46.643Z,22.00
2018-03-26T10:46:14.113Z,23.90
2018-03-26T10:48:41.574Z,18.37
2018-03-26T10:51:09.058Z,17.93
2018-03-26T10:53:36.507Z,17.33
2018-03-26T10:56:03.977Z,16.23
2018-03-26T10:58:31.482Z,12.03
2018-03-26T11:00:58.927Z,13.50
2018-03-26T11:03:26.377Z,16.00
2018-03-26T11:05:53.834Z,16.93
2018-03-26T11:08:21.277Z,13.33
2018-03-26T11:10:49.563Z,10.10
2018-03-26T11:13:17.023Z,8.20
2018-03-26T11:15:44.486Z,6.73
2018-03-26T11:18:11.965Z,8.30
2018-03-26T11:20:39.437Z,7.97
2018-03-26T11:23:06.920Z,10.30
2018-03-26T11:25:34.396Z,10.87
2018-03-26T11:28:01.932Z,11.40
2018-03-26T11:30:29.443Z,11.73
2018-03-26T11:32:56.979Z,11.97
2018-03-26T11:35:24.544Z,10.40
2018-03-26T11:37:52.120Z,9.93
2018-03-26T11:40:19.718Z,9.83
2018-03-26T11:42:47.255Z,8.40
2018-03-26T11:45:14.787Z,6.00
2018-03-26T11:47:42.378Z,7.53
2018-03-26T11:50:09.931Z,9.20
2018-03-26T11:52:37.485Z,7.50
2018-03-26T11:55:05.053Z,6.80
2018-03-26T11:57:32.648Z,5.87
2018-03-26T12:00:00.964Z,5.97
2018-03-26T12:02:28.486Z,4.70
2018-03-26T12:04:56.745Z,4.07
2018-03-26T12:07:24.215Z,3.87
2018-03-26T12:09:51.665Z,4.03
2018-03-26T12:12:19.121Z,4.80
2018-03-26T12:14:46.585Z,4.70
2018-03-26T12:17:14.056Z,3.50
2018-03-26T12:22:48.462Z,2.80
2018-03-26T12:25:17.796Z,2.90
2018-03-26T12:27:57.063Z,3.37
2018-03-26T12:30:25.354Z,2.60
2018-03-26T12:32:53.566Z,4.80
2018-03-26T12:35:33.550Z,3.40
2018-03-26T12:38:01.013Z,4.00
2018-03-26T12:40:40.729Z,3.27
2018-03-26T12:43:08.189Z,4.07
2018-03-26T12:45:48.220Z,5.30
2018-03-26T12:48:15.673Z,3.57
2018-03-26T12:50:54.843Z,4.93
2018-03-26T12:53:22.289Z,4.03
2018-03-26T12:55:49.724Z,3.90
2018-03-26T12:58:29.942Z,3.73
2018-03-26T13:01:09.341Z,3.00
2018-03-26T13:03:36.793Z,3.30
2018-03-26T13:06:04.279Z,3.60
2018-03-26T13:08:31.746Z,2.53
2018-03-26T13:10:59.274Z,2.47
2018-03-26T13:13:26.734Z,2.87
2018-03-26T13:15:54.177Z,3.27
2018-03-26T13:18:21.628Z,4.40
2018-03-26T13:20:49.909Z,2.97
2018-03-26T13:23:17.386Z,2.73
2018-03-26T13:25:44.885Z,2.90
2018-03-26T13:28:12.375Z,3.10
2018-03-26T13:30:40.600Z,3.47
2018-03-26T13:33:08.052Z,3.60
2018-03-26T13:35:35.522Z,4.40
2018-03-26T13:38:02.975Z,3.97
2018-03-26T13:40:30.456Z,3.03
2018-03-26T13:42:57.965Z,2.80
2018-03-26T13:45:25.499Z,3.03
2018-03-26T13:47:53.783Z,2.80
2018-03-26T13:50:21.266Z,2.93
2018-03-26T13:52:49.520Z,5.90
2018-03-26T13:55:17.008Z,4.97
2018-03-26T13:57:44.478Z,3.30
2018-03-26T14:00:11.960Z,2.87
2018-03-26T14:02:40.206Z,2.63
2018-03-26T14:05:07.667Z,3.10
2018-03-26T14:07:35.134Z,2.77
2018-03-26T14:10:14.368Z,2.80
2018-03-26T14:12:53.711Z,3.30
2018-03-26T14:15:33.210Z,3.90
2018-03-26T14:18:00.727Z,3.50
2018-03-26T14:20:28.953Z,4.43
2018-03-26T14:22:56.426Z,6.60
2018-03-26T14:25:23.896Z,3.73
2018-03-26T14:27:51.377Z,3.87
2018-03-26T14:30:19.602Z,2.83
2018-03-26T14:32:47.074Z,2.57
2018-03-26T14:38:28.144Z,2.60
2018-03-26T14:40:55.588Z,2.60
2018-03-26T14:43:23.051Z,2.67
2018-03-26T14:45:50.537Z,2.00
2018-03-26T14:48:17.988Z,1.40
2018-03-26T14:50:45.429Z,1.63
2018-03-26T14:53:12.885Z,1.30
2018-03-26T14:55:40.345Z,1.87
2018-03-26T14:58:07.811Z,3.13
2018-03-26T15:00:35.274Z,2.20
2018-03-26T15:03:02.741Z,1.97
2018-03-26T15:05:30.184Z,1.57
2018-03-26T15:07:57.664Z,1.33
2018-03-26T15:10:25.905Z,1.00
2018-03-26T15:12:53.357Z,1.60
2018-03-26T15:15:20.831Z,2.77
2018-03-26T15:17:48.274Z,2.30
2018-03-26T15:20:15.753Z,1.90
2018-03-26T15:22:43.224Z,2.37
2018-03-26T15:25:11.450Z,2.17
2018-03-26T15:27:38.899Z,1.80
2018-03-26T15:30:06.363Z,1.70
2018-03-26T15:32:33.809Z,2.20
2018-03-26T15:35:01.321Z,1.80
2018-03-26T15:37:29.573Z,3.20
2018-03-26T15:39:57.008Z,2.67
2018-03-26T15:42:24.469Z,2.07
2018-03-26T15:44:52.419Z,2.00
2018-03-26T15:47:19.891Z,2.37
2018-03-26T15:49:47.363Z,1.87
2018-03-26T15:52:14.830Z,2.00
2018-03-26T15:54:42.289Z,2.27
2018-03-26T15:57:09.793Z,2.23
2018-03-26T15:59:37.245Z,1.70
2018-03-26T16:02:04.222Z,2.00
2018-03-26T16:04:31.688Z,2.17
2018-03-26T16:06:59.150Z,2.13
2018-03-26T16:09:26.636Z,2.47
2018-03-26T16:11:54.098Z,2.07
2018-03-26T16:14:22.352Z,2.50
2018-03-26T16:16:49.866Z,2.10
2018-03-26T16:19:17.353Z,2.50
2018-03-26T16:21:44.931Z,3.27
2018-03-26T16:24:13.245Z,2.13
2018-03-26T16:26:40.759Z,2.40
2018-03-26T16:29:08.204Z,1.67
2018-03-26T16:31:35.690Z,2.10
2018-03-26T16:34:03.153Z,2.30
2018-03-26T16:36:31.404Z,1.83
2018-03-26T16:38:58.903Z,3.30
2018-03-26T16:41:38.363Z,2.40
2018-03-26T16:44:05.852Z,2.50
2018-03-26T16:46:33.338Z,2.20
2018-03-26T16:49:00.851Z,1.83
2018-03-26T16:51:28.494Z,2.60
2018-03-26T16:53:56.006Z,2.70
2018-03-26T16:56:23.479Z,2.57
2018-03-26T16:58:51.734Z,3.17
2018-03-26T17:01:19.264Z,2.97
2018-03-26T17:03:46.772Z,2.27
2018-03-26T17:06:15.198Z,2.93
2018-03-26T17:08:42.702Z,2.63
2018-03-26T17:11:12.081Z,2.80
2018-03-26T17:13:40.393Z,3.40
2018-03-26T17:16:07.923Z,3.00
2018-03-26T17:18:35.454Z,3.07
2018-03-26T17:21:02.935Z,2.97
2018-03-26T17:23:30.439Z,2.70
2018-03-26T17:25:58.793Z,2.97
2018-03-26T17:28:27.038Z,2.97
2018-03-26T17:30:54.531Z,3.03
2018-03-26T17:33:22.770Z,3.10
2018-03-26T17:35:50.284Z,3.60
2018-03-26T17:38:17.789Z,3.20
2018-03-26T17:40:47.530Z,3.60
2018-03-26T17:43:15.791Z,3.80
2018-03-26T17:45:44.704Z,4.43
2018-03-26T17:48:13.518Z,5.03
2018-03-26T17:50:41.990Z,4.27
2018-03-26T17:53:09.477Z,4.13
2018-03-26T17:55:37.640Z,4.17
2018-03-26T17:58:05.186Z,4.40
2018-03-26T18:00:32.679Z,16.77
2018-03-26T18:03:00.189Z,11.97
2018-03-26T18:05:27.713Z,6.20
2018-03-26T18:07:56.029Z,3.90
2018-03-26T18:10:23.951Z,4.57
2018-03-26T18:12:51.526Z,4.40
2018-03-26T18:15:20.494Z,4.63
2018-03-26T18:17:47.990Z,5.03
2018-03-26T18:20:16.884Z,4.67
2018-03-26T18:22:45.195Z,4.00
2018-03-26T18:25:12.734Z,4.43
2018-03-26T18:27:41.600Z,4.43
2018-03-26T18:30:09.836Z,5.27
2018-03-26T18:32:37.366Z,6.13
2018-03-26T18:35:04.854Z,6.43
2018-03-26T18:37:32.437Z,6.53
2018-03-26T18:40:02.802Z,5.40
2018-03-26T18:42:31.184Z,6.27
2018-03-26T18:44:59.285Z,5.83
2018-03-26T18:47:27.412Z,6.23
2018-03-26T18:49:55.659Z,6.40
2018-03-26T18:52:25.196Z,5.83
2018-03-26T18:54:53.063Z,6.27
2018-03-26T18:57:20.620Z,6.77
2018-03-26T18:59:48.168Z,5.77
2018-03-26T19:02:16.499Z,6.30
2018-03-26T19:04:46.755Z,6.23
2018-03-26T19:07:15.907Z,6.40
2018-03-26T19:09:44.883Z,6.20
2018-03-26T19:12:14.005Z,7.20
2018-03-26T19:14:41.836Z,7.00
2018-03-26T19:17:09.366Z,11.03
2018-03-26T19:19:38.420Z,7.93
2018-03-26T19:22:06.845Z,9.00
2018-03-26T19:24:35.361Z,8.90
2018-03-26T19:27:03.706Z,8.60
2018-03-26T19:29:31.258Z,8.53
2018-03-26T19:31:59.670Z,6.17
2018-03-26T19:34:27.175Z,5.93
2018-03-26T19:37:00.741Z,6.47
2018-03-26T19:39:28.263Z,6.53
2018-03-26T19:41:56.532Z,5.90
2018-03-26T19:44:24.060Z,6.87
2018-03-26T19:46:53.927Z,7.43
2018-03-26T19:49:22.802Z,7.53
2018-03-26T19:51:50.351Z,6.50
2018-03-26T19:54:17.877Z,7.57
2018-03-26T19:56:47.623Z,7.37
2018-03-26T19:59:15.412Z,9.57
2018-03-26T20:01:44.690Z,6.27
2018-03-26T20:04:13.124Z,4.43
2018-03-26T20:06:46.035Z,4.77
2018-03-26T20:09:17.907Z,5.10
2018-03-26T20:11:45.389Z,4.43
2018-03-26T20:14:14.356Z,4.70
2018-03-26T20:16:41.878Z,4.70
2018-03-26T20:19:10.126Z,5.13
2018-03-26T20:21:41.659Z,5.93
2018-03-26T20:24:09.166Z,6.37
2018-03-26T20:26:39.980Z,5.40
2018-03-26T20:29:08.416Z,7.77
2018-03-26T20:31:35.929Z,8.30
2018-03-26T20:34:03.500Z,6.53
2018-03-26T20:36:33.108Z,5.90
2018-03-26T20:39:02.388Z,7.63
2018-03-26T20:41:33.966Z,6.33
2018-03-26T20:44:03.984Z,9.83
2018-03-26T20:46:35.451Z,6.70
2018-03-26T20:49:04.621Z,6.37
2018-03-26T20:51:33.055Z,6.47
2018-03-26T20:54:01.495Z,6.50
2018-03-26T20:56:30.629Z,6.00
2018-03-26T20:58:59.210Z,6.00
2018-03-26T21:01:27.090Z,7.37
2018-03-26T21:03:55.518Z,6.97
2018-03-26T21:06:25.681Z,6.13
2018-03-26T21:08:53.905Z,6.70
2018-03-26T21:11:21.400Z,6.50
2018-03-26T21:13:48.919Z,6.80
2018-03-26T21:16:16.425Z,7.00
2018-03-26T21:18:44.547Z,6.63
2018-03-26T21:21:13.591Z,7.33
2018-03-26T21:23:41.563Z,7.63
2018-03-26T21:26:10.067Z,6.97
2018-03-26T21:28:37.574Z,6.67
2018-03-26T21:31:05.874Z,7.50
2018-03-26T21:33:34.483Z,6.70
2018-03-26T21:36:02.401Z,6.73
2018-03-26T21:38:31.035Z,7.47
2018-03-26T21:41:00.189Z,7.67
2018-03-26T21:43:27.697Z,7.43
2018-03-26T21:45:55.968Z,7.97
2018-03-26T21:48:23.486Z,7.90
2018-03-26T21:50:50.984Z,8.87
2018-03-26T21:53:19.063Z,9.63
2018-03-26T21:55:46.581Z,8.80
2018-03-26T21:58:14.126Z,8.93
2018-03-26T22:00:41.643Z,8.27
2018-03-26T22:03:09.134Z,8.13
2018-03-26T22:05:37.782Z,10.03
2018-03-26T22:08:06.110Z,9.67
2018-03-26T22:10:33.607Z,10.13
2018-03-26T22:13:01.121Z,9.63
2018-03-26T22:15:28.615Z,10.27
2018-03-26T22:17:56.103Z,10.43
2018-03-26T22:20:23.577Z,9.93
2018-03-26T22:22:51.820Z,10.13
2018-03-26T22:25:19.292Z,11.43
2018-03-26T22:27:46.755Z,10.87
2018-03-26T22:30:14.582Z,10.70
2018-03-26T22:32:42.056Z,11.23
2018-03-26T22:35:09.521Z,10.97
2018-03-26T22:37:37.013Z,11.23
2018-03-26T22:40:04.446Z,11.93
2018-03-26T22:42:32.694Z,11.53
2018-03-26T22:45:00.149Z,12.60
2018-03-26T22:47:27.622Z,11.97
2018-03-26T22:49:55.080Z,11.37
2018-03-26T22:52:22.549Z,12.33
2018-03-26T22:54:50.778Z,10.77
2018-03-26T22:57:18.247Z,11.13
2018-03-26T22:59:45.726Z,12.07
2018-03-26T23:02:13.179Z,12.03
2018-03-26T23:04:40.628Z,11.87
2018-03-26T23:07:08.842Z,12.40
2018-03-26T23:09:37.084Z,11.77
2018-03-26T23:12:04.553Z,11.87
2018-03-26T23:14:31.997Z,12.10
2018-03-26T23:16:59.481Z,12.57
2018-03-26T23:19:27.716Z,11.77
2018-03-26T23:21:55.186Z,12.47
2018-03-26T23:24:22.677Z,12.17
2018-03-26T23:26:50.905Z,12.53
2018-03-26T23:29:18.371Z,13.67
2018-03-26T23:31:45.849Z,13.87
2018-03-26T23:34:14.066Z,12.90
2018-03-26T23:36:41.533Z,12.63
2018-03-26T23:39:08.980Z,13.13
2018-03-26T23:41:36.458Z,13.53
2018-03-26T23:44:03.932Z,13.03
2018-03-26T23:46:31.399Z,13.70
2018-03-26T23:48:58.870Z,12.93
2018-03-26T23:51:27.092Z,13.47
2018-03-26T23:53:54.559Z,13.70
2018-03-26T23:56:22.010Z,13.37
2018-03-26T23:58:49.474Z,13.97
